Latest Weather Observations for Perth Airport

IDW60901

Issued at 12:41 pm WST Thursday 26 May 2016 (issued every 10 minutes, with the page automatically refreshed every 10 minutes)

About weather observations | Map of Perth area stations | Latest observations for Perth area | Other Formats
Station Details ID: 009021 Name: PERTH AIRPORT Lat: -31.93 Lon: 115.98 Height: 15.4 m
Data from the previous 72 hours. | See also: Recent months at Perth Airport
Date/Time
WST
Tmp

°C
App
Tmp
°C
Dew
Point
°C
Rel
Hum
%
Delta-T

°C
Wind Press
QNH
hPa
Press
MSL
hPa
Rain
since
9 am
mm
Dir
 
Spd
km/h
Gust
km/h
Spd
kts
Gust
kts
26/12:30pm 18.4 14.2 11.0 62 4.0 SSW 24 32 13 17 1018.8 - 0.4
26/12:00pm 18.5 16.1 12.6 68 3.3 S 17 22 9 12 1018.7 1018.7 0.4
26/11:30am 17.8 14.9 12.8 72 2.8 S 20 26 11 14 1018.6 - 0.4
26/11:00am 17.0 13.6 12.5 75 2.5 SSW 22 37 12 20 1018.8 - 0.4
26/10:56am 17.5 13.1 12.8 74 2.6 SW 28 37 15 20 1018.5 - 0.4
26/10:30am 17.4 16.3 13.1 76 2.4 N 11 13 6 7 1018.4 - 0.4
26/10:00am 15.8 15.3 13.7 87 1.2 NE 9 11 5 6 1018.0 - 0.4
26/09:30am 14.7 14.1 13.4 92 0.7 NNE 9 11 5 6 1018.2 - 0.4
26/09:00am 14.8 14.7 13.4 91 0.8 ENE 6 7 3 4 1017.5 1017.5 2.4
26/08:30am 13.9 14.1 13.0 94 0.5 W 4 9 2 5 1017.3 - 2.4
26/08:00am 13.2 12.2 12.3 94 0.5 SSE 9 13 5 7 1016.5 - 2.4
26/07:31am 12.7 11.6 12.0 95 0.4 ESE 9 17 5 9 1016.4 - 2.4
26/07:19am 11.8 11.2 11.6 99 0.1 NE 6 7 3 4 1015.9 - 2.4
26/07:00am 11.9 11.0 11.3 96 0.3 NE 7 9 4 5 1015.4 - 2.4
26/06:30am 12.0 10.8 11.6 97 0.2 ENE 9 11 5 6 1015.1 - 2.4
26/06:00am 12.0 10.8 11.6 97 0.2 NE 9 11 5 6 1015.2 1015.2 2.4
26/05:30am 12.3 11.6 11.9 97 0.2 NE 7 9 4 5 1014.3 - 2.4
26/05:00am 12.4 11.7 12.0 97 0.2 NE 7 9 4 5 1014.6 - 2.4
26/04:30am 12.7 11.7 12.3 97 0.2 NE 9 9 5 5 1014.1 - 2.4
26/04:00am 12.8 11.8 12.2 96 0.3 NE 9 11 5 6 1014.1 - 2.4
26/03:30am 12.8 12.4 12.4 97 0.2 NE 6 9 3 5 1013.7 - 2.4
26/03:00am 12.9 11.9 12.3 96 0.3 NE 9 11 5 6 1013.6 1013.6 2.4
26/02:30am 12.8 11.8 12.2 96 0.3 NNE 9 15 5 8 1013.4 - 2.4
26/02:13am 12.7 11.7 12.3 97 0.2 NNE 9 13 5 7 1013.6 - 2.2
26/02:00am 12.8 11.8 12.4 97 0.2 NNE 9 13 5 7 1013.5 - 2.2
26/01:56am 12.8 11.4 12.2 96 0.3 NE 11 15 6 8 1013.3 - 1.8
26/01:30am 13.0 12.0 12.4 96 0.3 NNE 9 13 5 7 1013.3 - 1.6
26/01:24am 12.9 11.5 12.3 96 0.3 NNE 11 13 6 7 1013.3 - 1.4
26/01:00am 12.8 11.8 12.4 97 0.2 N 9 9 5 5 1012.9 - 1.4
26/12:39am 12.9 11.2 12.3 96 0.3 NNW 13 19 7 10 1013.5 - 1.2
26/12:30am 12.9 11.5 12.3 96 0.3 NNW 11 19 6 10 1013.6 - 1.2
26/12:00am 12.9 11.5 12.2 95 0.4 N 11 15 6 8 1013.1 1013.1 0.8
 
Date/Time
WST
Tmp

°C
App
Tmp
°C
Dew
Point
°C
Rel
Hum
%
Delta-T

°C
Wind Press
QNH
hPa
Press
MSL
hPa
Rain
since
9 am
mm
Dir
 
Spd
km/h
Gust
km/h
Spd
kts
Gust
kts
25/11:30pm 12.6 10.4 12.0 96 0.3 N 15 17 8 9 1013.3 - 0.6
25/11:00pm 12.6 10.8 12.0 96 0.3 NNE 13 17 7 9 1013.5 - 0.6
25/10:30pm 12.8 11.4 12.2 96 0.3 N 11 13 6 7 1013.6 - 0.6
25/10:00pm 13.1 11.8 12.4 95 0.4 N 11 15 6 8 1013.1 - 0.6
25/09:30pm 13.3 12.3 12.2 93 0.6 N 9 11 5 6 1013.5 - 0.6
25/09:00pm 13.5 12.9 12.4 93 0.6 NNW 7 9 4 5 1013.5 1013.5 0.6
25/08:30pm 13.6 12.7 12.7 94 0.5 N 9 13 5 7 1013.7 - 0.6
25/08:00pm 13.5 12.6 12.6 94 0.5 N 9 13 5 7 1013.5 - 0.6
25/07:30pm 13.1 11.7 12.2 94 0.5 NNW 11 15 6 8 1013.5 - 0.6
25/07:00pm 14.1 12.6 11.9 86 1.2 W 11 15 6 8 1013.3 - 0.6
25/06:30pm 13.8 11.5 11.7 87 1.1 NW 15 26 8 14 1013.2 - 0.6
25/06:00pm 15.6 13.9 11.3 75 2.3 WNW 11 19 6 10 1012.7 1012.7 0.2
25/05:30pm 16.0 14.2 10.9 72 2.7 W 11 15 6 8 1012.3 - 0.2
25/05:00pm 16.9 13.6 9.4 61 3.9 WNW 17 26 9 14 1012.1 - 0.2
25/04:30pm 17.5 14.1 9.3 58 4.3 WNW 17 22 9 12 1012.0 - 0.2
25/04:00pm 18.3 14.3 8.9 54 4.9 WNW 20 32 11 17 1011.7 - 0.2
25/03:30pm 18.4 15.3 8.8 53 5.0 W 15 20 8 11 1011.7 - 0.2
25/03:00pm 18.5 14.3 8.4 51 5.2 WNW 20 28 11 15 1011.6 1011.6 0.2
25/02:30pm 18.9 14.9 9.0 52 5.2 W 20 28 11 15 1011.6 - 0.2
25/02:00pm 18.0 14.2 9.2 56 4.6 W 19 26 10 14 1011.5 - 0.2
25/01:30pm 18.4 14.3 8.6 53 5.1 W 20 32 11 17 1011.4 - 0.2
25/01:00pm 17.8 13.8 9.0 56 4.6 W 20 32 11 17 1011.4 - 0.2
25/12:30pm 18.1 14.7 9.1 55 4.7 W 17 26 9 14 1011.5 - 0.2
25/12:00pm 18.5 15.2 9.6 56 4.7 W 17 26 9 14 1011.8 1011.8 0.2
25/11:30am 17.2 15.5 12.3 73 2.7 N 13 19 7 10 1012.0 - 0.2
25/11:00am 16.5 15.1 12.1 75 2.4 N 11 15 6 8 1012.2 - 0.2
25/10:30am 15.2 12.9 11.9 81 1.8 N 15 19 8 10 1012.4 - 0.0
25/10:00am 15.4 14.0 12.3 82 1.7 NNE 11 13 6 7 1012.5 - 0.0
25/09:30am 13.2 11.5 11.3 88 1.0 N 11 13 6 7 1012.6 - 0.0
25/09:00am 13.1 10.7 11.4 89 0.9 NNE 15 17 8 9 1012.4 1012.4 2.2
25/08:30am 12.1 10.0 11.1 94 0.5 NNE 13 15 7 8 1012.3 - 2.2
25/08:00am 11.0 9.5 10.4 96 0.3 NNE 9 13 5 7 1012.4 - 2.2
25/07:30am 10.5 8.4 9.9 96 0.3 NNE 11 11 6 6 1012.1 - 2.2
25/07:00am 10.2 8.5 9.8 97 0.2 NE 9 11 5 6 1011.7 - 2.2
25/06:30am 9.9 7.7 9.5 97 0.2 NE 11 15 6 8 1011.5 - 2.2
25/06:00am 10.6 8.9 10.0 96 0.3 NNE 9 13 5 7 1011.2 1011.2 2.2
25/05:30am 10.7 9.1 10.1 96 0.3 NE 9 11 5 6 1011.0 - 2.2
25/05:00am 10.8 9.2 10.2 96 0.3 NE 9 11 5 6 1011.0 - 2.2
25/04:30am 11.1 10.0 10.7 97 0.2 NNE 7 9 4 5 1010.9 - 2.2
25/04:00am 11.3 9.8 10.7 96 0.3 NNE 9 11 5 6 1010.8 - 2.2
25/03:30am 11.5 10.1 10.9 96 0.3 N 9 13 5 7 1010.9 - 2.2
25/03:00am 11.4 9.6 11.0 97 0.2 NE 11 13 6 7 1010.8 1010.8 2.2
25/02:30am 11.3 10.3 10.9 97 0.2 NNE 7 9 4 5 1010.9 - 2.2
25/02:00am 11.2 10.1 10.8 97 0.2 NNE 7 9 4 5 1011.0 - 2.0
25/01:30am 11.1 9.3 10.7 97 0.2 NE 11 15 6 8 1010.9 - 2.0
25/01:00am 11.5 10.1 10.9 96 0.3 ESE 9 11 5 6 1010.9 - 2.0
25/12:30am 12.3 11.1 11.7 96 0.3 WSW 9 13 5 7 1011.3 - 2.0
25/12:20am 12.1 11.3 11.7 97 0.2 NW 7 11 4 6 1011.4 - 2.0
25/12:00am 11.7 10.4 11.3 97 0.2 NE 9 11 5 6 1010.9 1010.9 2.0
 
Date/Time
WST
Tmp

°C
App
Tmp
°C
Dew
Point
°C
Rel
Hum
%
Delta-T

°C
Wind Press
QNH
hPa
Press
MSL
hPa
Rain
since
9 am
mm
Dir
 
Spd
km/h
Gust
km/h
Spd
kts
Gust
kts
24/11:30pm 12.0 10.8 11.6 97 0.2 E 9 17 5 9 1010.9 - 1.8
24/11:00pm 12.5 11.1 12.1 97 0.2 NE 11 20 6 11 1011.0 - 1.8
24/10:30pm 12.4 11.3 12.0 97 0.2 N 9 17 5 9 1011.2 - 1.8
24/10:00pm 12.2 11.1 11.8 97 0.2 NNW 9 13 5 7 1011.3 - 1.8
24/09:30pm 12.0 10.7 11.4 96 0.3 NNW 9 11 5 6 1011.0 - 1.8
24/09:00pm 12.4 11.8 11.6 95 0.4 NNW 6 9 3 5 1011.0 1011.0 1.8
24/08:30pm 13.2 12.1 12.1 93 0.6 NNW 9 15 5 8 1011.2 - 1.8
24/08:27pm 13.2 11.8 12.1 93 0.6 NNW 11 15 6 8 1011.2 - 1.6
24/08:00pm 13.5 11.3 12.0 91 0.8 NW 15 24 8 13 1011.2 - 0.4
24/07:30pm 13.3 13.5 12.0 92 0.7 SSW 2 7 1 4 1010.9 - 0.2
24/07:00pm 13.8 13.0 11.0 83 1.5 SSW 6 7 3 4 1010.4 - 0.0
24/06:30pm 13.5 12.3 10.2 80 1.7 SSW 7 9 4 5 1010.2 - 0.0
24/06:00pm 14.6 12.6 10.2 75 2.3 SSW 11 15 6 8 1009.8 1009.8 0.0
24/05:30pm 15.9 11.0 9.8 67 3.2 SSW 26 32 14 17 1009.5 - 0.0
24/05:00pm 16.2 13.6 9.3 63 3.6 W 13 19 7 10 1009.1 - 0.0
24/04:30pm 17.1 13.1 9.0 59 4.2 WSW 20 30 11 16 1009.0 - 0.0
24/04:00pm 17.0 12.8 9.6 61 3.9 WSW 22 33 12 18 1008.8 - 0.0
24/03:30pm 16.6 14.3 10.4 67 3.3 SW 13 20 7 11 1008.4 - 0.0
24/03:00pm 16.2 10.7 10.6 69 3.0 SW 30 37 16 20 1008.3 1008.3 0.0
24/02:30pm 17.3 11.2 9.7 61 4.0 SW 32 35 17 19 1007.8 - 0.0
24/02:00pm 18.1 12.7 7.9 51 5.2 WSW 26 33 14 18 1007.5 - 0.0
24/01:30pm 17.9 12.7 8.9 55 4.7 WSW 26 35 14 19 1007.3 - 0.0
24/01:00pm 18.7 13.1 7.3 47 5.8 WSW 26 37 14 20 1007.2 - 0.0
24/12:30pm 18.9 13.2 6.8 45 6.1 W 26 39 14 21 1007.2 - 0.0
24/12:00pm 19.0 13.0 5.3 40 6.7 W 26 35 14 19 1007.6 1007.6 0.0
24/11:30am 18.8 11.9 4.4 38 6.9 WSW 30 43 16 23 1007.8 - 0.0
24/11:00am 18.3 11.7 6.2 45 6.0 WSW 30 48 16 26 1007.8 - 0.0
24/10:30am 18.1 11.9 7.9 51 5.2 WSW 30 44 16 24 1007.6 - 0.0
24/10:00am 18.3 14.4 10.9 62 4.0 WSW 22 33 12 18 1007.4 - 0.0
24/09:30am 17.6 14.8 13.2 75 2.5 SW 20 39 11 21 1007.3 - 0.0
24/09:00am 16.6 14.2 12.6 77 2.2 WSW 17 24 9 13 1006.9 1006.9 18.6
24/08:30am 15.9 15.1 14.0 88 1.1 WSW 11 17 6 9 1006.6 - 18.6
24/08:17am 15.6 13.0 13.8 89 1.0 WSW 20 30 11 16 1006.6 - 18.6
24/08:00am 15.8 11.5 14.4 91 0.8 SW 30 43 16 23 1006.4 - 18.4
24/07:30am 16.2 13.0 15.3 94 0.5 SW 26 32 14 17 1005.3 - 18.4
24/07:16am 16.4 12.7 15.0 91 0.8 SW 28 41 15 22 1004.9 - 18.2
24/07:00am 16.4 13.2 15.2 93 0.7 WSW 26 37 14 20 1004.3 - 18.2
24/06:30am 17.0 13.1 15.5 91 0.9 WSW 30 39 16 21 1003.9 - 17.6
24/06:00am 17.3 14.2 16.5 95 0.5 WSW 28 37 15 20 1003.2 1003.2 17.2
24/05:39am 17.9 13.6 16.9 94 0.6 WSW 35 54 19 29 1002.4 - 16.4
24/05:30am 18.7 13.2 17.6 93 0.7 W 43 52 23 28 1002.1 - 16.4
24/05:28am 18.9 8.6 18.1 95 0.5 NW 69 98 37 53 1001.7 - 16.2
24/05:26am 18.7 14.1 18.1 96 0.4 NNW 39 54 21 29 1001.5 - 16.0
24/05:00am 16.8 14.1 16.5 98 0.2 N 26 35 14 19 1001.0 - 12.8
24/04:30am 16.4 13.0 15.9 97 0.3 N 28 33 15 18 1001.7 - 11.6
24/04:00am 16.2 13.1 15.5 96 0.4 N 26 33 14 18 1002.2 - 10.8
24/03:00am 15.7 12.0 15.0 96 0.4 N 28 39 15 21 1003.1 1003.1 6.0
24/02:52am 15.6 12.6 14.9 96 0.4 N 24 28 13 15 1003.3 - 5.4
24/02:30am 15.2 12.0 14.3 94 0.5 NNE 24 33 13 18 1003.7 - 4.6
24/02:00am 15.1 12.8 14.0 93 0.6 N 19 32 10 17 1004.5 - 2.0
24/01:30am 15.2 13.0 13.4 89 1.0 NNE 17 22 9 12 1004.9 - 1.4
24/01:00am 15.7 13.3 12.6 82 1.7 N 17 26 9 14 1005.5 - 0.6
24/12:30am 15.7 12.1 12.0 78 2.0 N 22 28 12 15 1005.9 - 0.6
24/12:00am 15.3 11.3 11.8 79 1.9 NNE 24 30 13 16 1005.7 1005.7 0.6
 
Date/Time
WST
Tmp

°C
App
Tmp
°C
Dew
Point
°C
Rel
Hum
%
Delta-T

°C
Wind Press
QNH
hPa
Press
MSL
hPa
Rain
since
9 am
mm
Dir
 
Spd
km/h
Gust
km/h
Spd
kts
Gust
kts
23/11:30pm 16.3 12.1 9.8 65 3.4 N 22 28 12 15 1006.5 - 0.0
23/11:00pm 16.4 12.0 9.1 62 3.8 N 22 30 12 16 1007.4 - 0.0
23/10:30pm 16.2 11.7 8.6 60 3.9 NNE 22 28 12 15 1007.4 - 0.0
23/10:00pm 15.9 12.3 8.4 61 3.8 N 17 19 9 10 1008.2 - 0.0
23/09:30pm 15.7 11.8 8.7 63 3.6 NNE 19 22 10 12 1008.3 - 0.0
23/09:00pm 16.3 12.8 8.7 60 3.9 N 17 20 9 11 1008.7 1008.7 0.0
23/08:30pm 16.0 12.2 9.0 63 3.6 NNE 19 22 10 12 1009.1 - 0.0
23/08:00pm 15.4 13.1 10.3 71 2.7 N 13 19 7 10 1010.1 - 0.0
23/07:30pm 16.1 13.8 9.1 63 3.6 N 11 13 6 7 1010.1 - 0.0
23/07:00pm 15.9 13.4 9.6 66 3.3 N 13 17 7 9 1010.3 - 0.0
23/06:30pm 17.3 13.6 8.1 54 4.7 NNE 17 19 9 10 1010.2 - 0.0
23/06:00pm 17.6 14.3 8.0 53 4.9 NNE 15 17 8 9 1010.7 1010.7 0.0
23/05:30pm 17.9 14.2 7.9 52 5.1 N 17 22 9 12 1011.1 - 0.0
23/05:00pm 18.3 14.5 7.7 50 5.4 N 17 24 9 13 1011.1 - 0.0
23/04:30pm 18.5 12.9 7.0 47 5.8 N 26 37 14 20 1011.1 - 0.0
23/04:00pm 19.3 12.8 6.5 43 6.4 N 30 35 16 19 1011.5 - 0.0
23/03:30pm 19.9 13.2 7.4 44 6.4 N 32 41 17 22 1011.9 - 0.0
23/03:00pm 19.9 13.5 7.1 43 6.5 N 30 37 16 20 1012.4 1012.4 0.0
23/02:30pm 19.9 13.2 7.4 44 6.4 N 32 37 17 20 1013.2 - 0.0
23/02:00pm 20.0 13.8 8.0 46 6.2 NNE 30 39 16 21 1014.1 - 0.0
23/01:30pm 19.5 13.1 6.8 43 6.4 N 30 37 16 20 1014.6 - 0.0
23/01:00pm 19.7 13.0 7.3 44 6.3 N 32 41 17 22 1015.2 - 0.0

Latest Capital City Observations: Canberra | Sydney | Melbourne | Brisbane | Adelaide | Perth | Hobart | Darwin

Other Formats:

Comma delimited format used in spreadsheet applications
http://www.bom.gov.au/fwo/IDW60901/IDW60901.94610.axf

JavaScript Object Notation format (JSON) in row-major order
http://www.bom.gov.au/fwo/IDW60901/IDW60901.94610.json